sensor_id;sensor_type;location;lat;lon;timestamp;temperature;humidity
6696;DHT22;3385;48.928;10.330;2023-06-04T00:00:48;12.80;99.90
6696;DHT22;3385;48.928;10.330;2023-06-04T00:03:14;12.90;99.90
6696;DHT22;3385;48.928;10.330;2023-06-04T00:05:40;12.90;99.90
6696;DHT22;3385;48.928;10.330;2023-06-04T00:08:05;13.20;99.90
6696;DHT22;3385;48.928;10.330;2023-06-04T00:10:31;13.00;99.90
6696;DHT22;3385;48.928;10.330;2023-06-04T00:12:59;13.00;99.90
6696;DHT22;3385;48.928;10.330;2023-06-04T00:15:25;12.90;99.90
6696;DHT22;3385;48.928;10.330;2023-06-04T00:17:51;12.90;99.90
6696;DHT22;3385;48.928;10.330;2023-06-04T00:20:18;13.00;99.90
6696;DHT22;3385;48.928;10.330;2023-06-04T00:22:43;13.30;99.90
6696;DHT22;3385;48.928;10.330;2023-06-04T00:25:10;13.50;99.90
6696;DHT22;3385;48.928;10.330;2023-06-04T00:27:36;13.50;99.90
6696;DHT22;3385;48.928;10.330;2023-06-04T00:30:02;13.50;99.90
6696;DHT22;3385;48.928;10.330;2023-06-04T00:32:28;13.60;99.90
6696;DHT22;3385;48.928;10.330;2023-06-04T00:34:55;13.80;99.90
6696;DHT22;3385;48.928;10.330;2023-06-04T00:37:27;13.90;99.90
6696;DHT22;3385;48.928;10.330;2023-06-04T00:39:54;13.80;99.90
6696;DHT22;3385;48.928;10.330;2023-06-04T00:42:19;14.00;99.90
6696;DHT22;3385;48.928;10.330;2023-06-04T00:44:45;13.40;99.90
6696;DHT22;3385;48.928;10.330;2023-06-04T00:47:20;13.00;99.90
6696;DHT22;3385;48.928;10.330;2023-06-04T00:49:46;13.00;99.90
6696;DHT22;3385;48.928;10.330;2023-06-04T00:52:14;17.70;99.90
6696;DHT22;3385;48.928;10.330;2023-06-04T00:54:40;13.00;99.90
6696;DHT22;3385;48.928;10.330;2023-06-04T00:57:06;12.90;99.90
6696;DHT22;3385;48.928;10.330;2023-06-04T00:59:36;12.80;99.90
6696;DHT22;3385;48.928;10.330;2023-06-04T01:02:11;12.70;99.90
6696;DHT22;3385;48.928;10.330;2023-06-04T01:04:50;12.50;99.90
6696;DHT22;3385;48.928;10.330;2023-06-04T01:07:18;12.40;99.90
6696;DHT22;3385;48.928;10.330;2023-06-04T01:09:45;12.50;99.90
6696;DHT22;3385;48.928;10.330;2023-06-04T01:12:11;12.40;99.90
6696;DHT22;3385;48.928;10.330;2023-06-04T01:14:37;12.10;99.90
6696;DHT22;3385;48.928;10.330;2023-06-04T01:25:32;11.90;99.90
6696;DHT22;3385;48.928;10.330;2023-06-04T01:27:59;11.80;99.90
6696;DHT22;3385;48.928;10.330;2023-06-04T01:30:35;11.90;99.90
6696;DHT22;3385;48.928;10.330;2023-06-04T01:33:10;11.80;99.90
6696;DHT22;3385;48.928;10.330;2023-06-04T01:35:36;11.80;99.90
6696;DHT22;3385;48.928;10.330;2023-06-04T01:38:02;11.90;99.90
6696;DHT22;3385;48.928;10.330;2023-06-04T01:40:28;11.80;99.90
6696;DHT22;3385;48.928;10.330;2023-06-04T01:42:54;11.70;99.90
6696;DHT22;3385;48.928;10.330;2023-06-04T01:45:22;11.80;99.90
6696;DHT22;3385;48.928;10.330;2023-06-04T01:47:48;11.80;99.90
6696;DHT22;3385;48.928;10.330;2023-06-04T01:50:14;11.90;99.90
6696;DHT22;3385;48.928;10.330;2023-06-04T01:52:40;11.80;99.90
6696;DHT22;3385;48.928;10.330;2023-06-04T01:55:11;11.80;99.90
6696;DHT22;3385;48.928;10.330;2023-06-04T01:57:38;11.90;99.90
6696;DHT22;3385;48.928;10.330;2023-06-04T02:00:05;12.10;99.90
6696;DHT22;3385;48.928;10.330;2023-06-04T02:02:40;12.30;99.90
6696;DHT22;3385;48.928;10.330;2023-06-04T02:05:08;12.20;99.90
6696;DHT22;3385;48.928;10.330;2023-06-04T02:07:35;12.20;99.90
6696;DHT22;3385;48.928;10.330;2023-06-04T02:10:01;12.10;99.90
6696;DHT22;3385;48.928;10.330;2023-06-04T02:12:26;12.10;99.90
6696;DHT22;3385;48.928;10.330;2023-06-04T02:14:52;12.10;99.90
6696;DHT22;3385;48.928;10.330;2023-06-04T02:17:18;12.10;99.90
6696;DHT22;3385;48.928;10.330;2023-06-04T02:19:44;11.90;99.90
6696;DHT22;3385;48.928;10.330;2023-06-04T02:22:13;12.00;99.90
6696;DHT22;3385;48.928;10.330;2023-06-04T02:24:40;12.00;99.90
6696;DHT22;3385;48.928;10.330;2023-06-04T02:27:09;11.80;99.90
6696;DHT22;3385;48.928;10.330;2023-06-04T02:29:34;11.70;99.90
6696;DHT22;3385;48.928;10.330;2023-06-04T02:32:01;11.60;99.90
6696;DHT22;3385;48.928;10.330;2023-06-04T02:34:27;11.70;99.90
6696;DHT22;3385;48.928;10.330;2023-06-04T02:36:52;11.60;99.90
6696;DHT22;3385;48.928;10.330;2023-06-04T02:39:19;11.40;99.90
6696;DHT22;3385;48.928;10.330;2023-06-04T02:41:45;11.10;99.90
6696;DHT22;3385;48.928;10.330;2023-06-04T02:44:11;11.40;99.90
6696;DHT22;3385;48.928;10.330;2023-06-04T02:46:37;11.20;99.90
6696;DHT22;3385;48.928;10.330;2023-06-04T02:49:04;7.50;99.90
6696;DHT22;3385;48.928;10.330;2023-06-04T02:51:29;11.00;99.90
6696;DHT22;3385;48.928;10.330;2023-06-04T02:53:55;11.00;99.90
6696;DHT22;3385;48.928;10.330;2023-06-04T02:56:21;10.90;99.90
6696;DHT22;3385;48.928;10.330;2023-06-04T02:58:54;10.80;99.90
6696;DHT22;3385;48.928;10.330;2023-06-04T03:01:25;11.00;99.90
6696;DHT22;3385;48.928;10.330;2023-06-04T03:03:52;10.70;99.90
6696;DHT22;3385;48.928;10.330;2023-06-04T03:06:19;10.60;99.90
6696;DHT22;3385;48.928;10.330;2023-06-04T03:08:47;10.50;99.90
6696;DHT22;3385;48.928;10.330;2023-06-04T03:11:13;10.60;99.90
6696;DHT22;3385;48.928;10.330;2023-06-04T03:13:39;10.60;99.90
6696;DHT22;3385;48.928;10.330;2023-06-04T03:16:05;10.70;99.90
6696;DHT22;3385;48.928;10.330;2023-06-04T03:18:37;10.80;99.90
6696;DHT22;3385;48.928;10.330;2023-06-04T03:21:04;10.90;99.90
6696;DHT22;3385;48.928;10.330;2023-06-04T03:23:30;10.90;99.90
6696;DHT22;3385;48.928;10.330;2023-06-04T03:25:56;10.90;99.90
6696;DHT22;3385;48.928;10.330;2023-06-04T03:28:22;10.90;99.90
6696;DHT22;3385;48.928;10.330;2023-06-04T03:30:48;10.90;99.90
6696;DHT22;3385;48.928;10.330;2023-06-04T03:33:13;10.80;99.90
6696;DHT22;3385;48.928;10.330;2023-06-04T03:35:42;10.90;99.90
6696;DHT22;3385;48.928;10.330;2023-06-04T03:38:08;11.00;99.90
6696;DHT22;3385;48.928;10.330;2023-06-04T03:40:34;10.80;99.90
6696;DHT22;3385;48.928;10.330;2023-06-04T03:42:59;11.10;99.90
6696;DHT22;3385;48.928;10.330;2023-06-04T03:45:26;11.00;99.90
6696;DHT22;3385;48.928;10.330;2023-06-04T03:47:52;11.00;99.90
6696;DHT22;3385;48.928;10.330;2023-06-04T03:50:18;11.00;99.90
6696;DHT22;3385;48.928;10.330;2023-06-04T03:52:44;11.00;99.90
6696;DHT22;3385;48.928;10.330;2023-06-04T03:55:10;11.00;99.90
6696;DHT22;3385;48.928;10.330;2023-06-04T03:57:36;11.00;99.90
6696;DHT22;3385;48.928;10.330;2023-06-04T04:00:08;11.10;99.90
6696;DHT22;3385;48.928;10.330;2023-06-04T04:02:37;11.20;99.90
6696;DHT22;3385;48.928;10.330;2023-06-04T04:05:03;10.90;99.90
6696;DHT22;3385;48.928;10.330;2023-06-04T04:07:29;14.70;99.90
6696;DHT22;3385;48.928;10.330;2023-06-04T04:09:55;10.90;99.90
6696;DHT22;3385;48.928;10.330;2023-06-04T04:12:21;11.10;99.90
6696;DHT22;3385;48.928;10.330;2023-06-04T04:14:47;11.10;99.90
6696;DHT22;3385;48.928;10.330;2023-06-04T04:17:14;11.20;99.90
6696;DHT22;3385;48.928;10.330;2023-06-04T04:19:40;11.20;99.90
6696;DHT22;3385;48.928;10.330;2023-06-04T04:22:05;11.00;99.90
6696;DHT22;3385;48.928;10.330;2023-06-04T04:24:32;11.30;99.90
6696;DHT22;3385;48.928;10.330;2023-06-04T04:27:01;11.40;99.90
6696;DHT22;3385;48.928;10.330;2023-06-04T04:29:30;11.30;99.90
6696;DHT22;3385;48.928;10.330;2023-06-04T04:31:58;11.20;99.90
6696;DHT22;3385;48.928;10.330;2023-06-04T04:34:38;11.40;99.90
6696;DHT22;3385;48.928;10.330;2023-06-04T04:37:09;11.30;99.90
6696;DHT22;3385;48.928;10.330;2023-06-04T04:39:35;11.30;99.90
6696;DHT22;3385;48.928;10.330;2023-06-04T04:42:02;11.30;99.90
6696;DHT22;3385;48.928;10.330;2023-06-04T04:44:28;11.30;99.90
6696;DHT22;3385;48.928;10.330;2023-06-04T04:46:53;11.40;99.90
6696;DHT22;3385;48.928;10.330;2023-06-04T04:49:19;11.50;99.90
6696;DHT22;3385;48.928;10.330;2023-06-04T04:51:45;11.60;99.90
6696;DHT22;3385;48.928;10.330;2023-06-04T04:54:11;11.70;99.90
6696;DHT22;3385;48.928;10.330;2023-06-04T04:56:37;11.90;99.90
6696;DHT22;3385;48.928;10.330;2023-06-04T04:59:02;12.00;99.90
6696;DHT22;3385;48.928;10.330;2023-06-04T05:01:28;12.10;99.90
6696;DHT22;3385;48.928;10.330;2023-06-04T05:03:54;12.30;99.90
6696;DHT22;3385;48.928;10.330;2023-06-04T05:06:19;12.30;99.90
6696;DHT22;3385;48.928;10.330;2023-06-04T05:08:47;12.90;99.90
6696;DHT22;3385;48.928;10.330;2023-06-04T05:11:13;12.80;99.90
6696;DHT22;3385;48.928;10.330;2023-06-04T05:13:39;12.50;99.90
6696;DHT22;3385;48.928;10.330;2023-06-04T05:16:07;12.60;99.90
6696;DHT22;3385;48.928;10.330;2023-06-04T05:18:33;12.60;99.90
6696;DHT22;3385;48.928;10.330;2023-06-04T05:21:00;12.60;99.90
6696;DHT22;3385;48.928;10.330;2023-06-04T05:23:29;12.60;99.90
6696;DHT22;3385;48.928;10.330;2023-06-04T05:25:55;12.70;99.90
6696;DHT22;3385;48.928;10.330;2023-06-04T05:28:21;12.80;99.90
6696;DHT22;3385;48.928;10.330;2023-06-04T05:30:53;12.80;99.90
6696;DHT22;3385;48.928;10.330;2023-06-04T05:33:27;12.70;99.90
6696;DHT22;3385;48.928;10.330;2023-06-04T05:35:53;12.70;99.90
6696;DHT22;3385;48.928;10.330;2023-06-04T05:38:23;13.00;99.90
6696;DHT22;3385;48.928;10.330;2023-06-04T05:40:53;13.00;99.90
6696;DHT22;3385;48.928;10.330;2023-06-04T05:43:20;13.00;99.90
6696;DHT22;3385;48.928;10.330;2023-06-04T05:45:46;13.00;99.90
6696;DHT22;3385;48.928;10.330;2023-06-04T05:48:12;13.20;99.90
6696;DHT22;3385;48.928;10.330;2023-06-04T05:50:37;13.20;99.90
6696;DHT22;3385;48.928;10.330;2023-06-04T05:53:03;13.30;99.90
6696;DHT22;3385;48.928;10.330;2023-06-04T05:55:29;13.60;99.90
6696;DHT22;3385;48.928;10.330;2023-06-04T05:57:55;13.70;99.90
6696;DHT22;3385;48.928;10.330;2023-06-04T06:00:22;13.70;99.90
6696;DHT22;3385;48.928;10.330;2023-06-04T06:02:49;13.90;99.90
6696;DHT22;3385;48.928;10.330;2023-06-04T06:05:17;14.10;99.90
6696;DHT22;3385;48.928;10.330;2023-06-04T06:07:44;14.10;99.90
6696;DHT22;3385;48.928;10.330;2023-06-04T06:10:10;14.10;99.90
6696;DHT22;3385;48.928;10.330;2023-06-04T06:12:36;14.10;99.90
6696;DHT22;3385;48.928;10.330;2023-06-04T06:15:02;14.30;99.90
6696;DHT22;3385;48.928;10.330;2023-06-04T06:17:28;14.30;99.90
6696;DHT22;3385;48.928;10.330;2023-06-04T06:19:54;14.20;99.90
6696;DHT22;3385;48.928;10.330;2023-06-04T06:22:20;14.30;99.90
6696;DHT22;3385;48.928;10.330;2023-06-04T06:24:46;14.50;99.90
6696;DHT22;3385;48.928;10.330;2023-06-04T06:27:14;14.50;99.90
6696;DHT22;3385;48.928;10.330;2023-06-04T06:29:41;14.50;99.90
6696;DHT22;3385;48.928;10.330;2023-06-04T06:32:08;14.20;99.90
6696;DHT22;3385;48.928;10.330;2023-06-04T06:34:34;14.30;99.90
6696;DHT22;3385;48.928;10.330;2023-06-04T06:37:00;14.60;99.90
6696;DHT22;3385;48.928;10.330;2023-06-04T06:39:25;14.60;99.90
6696;DHT22;3385;48.928;10.330;2023-06-04T06:41:53;14.90;99.90
6696;DHT22;3385;48.928;10.330;2023-06-04T06:44:19;14.80;99.90
6696;DHT22;3385;48.928;10.330;2023-06-04T06:46:45;15.00;99.90
6696;DHT22;3385;48.928;10.330;2023-06-04T06:49:10;15.10;99.90
6696;DHT22;3385;48.928;10.330;2023-06-04T06:51:36;18.90;99.90
6696;DHT22;3385;48.928;10.330;2023-06-04T06:54:02;15.40;99.90
6696;DHT22;3385;48.928;10.330;2023-06-04T06:56:28;15.40;99.90
6696;DHT22;3385;48.928;10.330;2023-06-04T06:58:54;15.50;99.90
6696;DHT22;3385;48.928;10.330;2023-06-04T07:01:20;15.80;99.90
6696;DHT22;3385;48.928;10.330;2023-06-04T07:03:46;15.90;99.90
6696;DHT22;3385;48.928;10.330;2023-06-04T07:06:12;16.10;99.90
6696;DHT22;3385;48.928;10.330;2023-06-04T07:08:38;16.30;99.90
6696;DHT22;3385;48.928;10.330;2023-06-04T07:11:04;16.50;99.90
6696;DHT22;3385;48.928;10.330;2023-06-04T07:13:30;16.70;99.90
6696;DHT22;3385;48.928;10.330;2023-06-04T07:16:00;16.90;99.90
6696;DHT22;3385;48.928;10.330;2023-06-04T07:18:26;17.10;99.90
6696;DHT22;3385;48.928;10.330;2023-06-04T07:20:52;17.10;99.90
6696;DHT22;3385;48.928;10.330;2023-06-04T07:23:18;17.20;99.90
6696;DHT22;3385;48.928;10.330;2023-06-04T07:25:44;17.30;99.90
6696;DHT22;3385;48.928;10.330;2023-06-04T07:28:11;17.40;99.90
6696;DHT22;3385;48.928;10.330;2023-06-04T07:30:38;17.40;99.90
6696;DHT22;3385;48.928;10.330;2023-06-04T07:33:04;17.40;99.90
6696;DHT22;3385;48.928;10.330;2023-06-04T07:35:29;17.50;99.90
6696;DHT22;3385;48.928;10.330;2023-06-04T07:37:55;17.60;99.90
6696;DHT22;3385;48.928;10.330;2023-06-04T07:40:21;17.70;99.90
6696;DHT22;3385;48.928;10.330;2023-06-04T07:42:47;17.50;99.90
6696;DHT22;3385;48.928;10.330;2023-06-04T07:45:14;17.70;99.90
6696;DHT22;3385;48.928;10.330;2023-06-04T07:47:40;17.80;99.90
6696;DHT22;3385;48.928;10.330;2023-06-04T07:50:06;18.00;99.90
6696;DHT22;3385;48.928;10.330;2023-06-04T07:52:32;18.10;99.90
6696;DHT22;3385;48.928;10.330;2023-06-04T07:54:59;18.20;99.90
6696;DHT22;3385;48.928;10.330;2023-06-04T07:57:26;18.30;99.90
6696;DHT22;3385;48.928;10.330;2023-06-04T07:59:51;18.40;99.90
6696;DHT22;3385;48.928;10.330;2023-06-04T08:02:18;18.60;99.90
6696;DHT22;3385;48.928;10.330;2023-06-04T08:04:44;18.50;99.90
6696;DHT22;3385;48.928;10.330;2023-06-04T08:07:11;18.40;99.90
6696;DHT22;3385;48.928;10.330;2023-06-04T08:09:37;18.50;99.90
6696;DHT22;3385;48.928;10.330;2023-06-04T08:12:03;18.60;99.90
6696;DHT22;3385;48.928;10.330;2023-06-04T08:14:29;18.70;99.90
6696;DHT22;3385;48.928;10.330;2023-06-04T08:16:54;18.80;99.90
6696;DHT22;3385;48.928;10.330;2023-06-04T08:19:20;18.80;99.90
6696;DHT22;3385;48.928;10.330;2023-06-04T08:21:46;18.90;99.90
6696;DHT22;3385;48.928;10.330;2023-06-04T08:24:13;19.10;99.90
6696;DHT22;3385;48.928;10.330;2023-06-04T08:26:39;19.30;99.90
6696;DHT22;3385;48.928;10.330;2023-06-04T08:29:05;19.40;99.90
6696;DHT22;3385;48.928;10.330;2023-06-04T08:31:31;19.40;99.90
6696;DHT22;3385;48.928;10.330;2023-06-04T08:33:57;19.30;99.90
6696;DHT22;3385;48.928;10.330;2023-06-04T08:36:23;19.40;99.90
6696;DHT22;3385;48.928;10.330;2023-06-04T08:38:49;19.50;99.90
6696;DHT22;3385;48.928;10.330;2023-06-04T08:43:42;19.70;99.90
6696;DHT22;3385;48.928;10.330;2023-06-04T08:46:11;19.80;99.90
6696;DHT22;3385;48.928;10.330;2023-06-04T08:48:38;19.90;99.90
6696;DHT22;3385;48.928;10.330;2023-06-04T08:51:06;19.80;99.90
6696;DHT22;3385;48.928;10.330;2023-06-04T08:53:34;19.80;99.90
6696;DHT22;3385;48.928;10.330;2023-06-04T08:56:01;19.90;99.90
6696;DHT22;3385;48.928;10.330;2023-06-04T08:58:31;20.00;99.90
6696;DHT22;3385;48.928;10.330;2023-06-04T09:01:01;20.40;99.90
6696;DHT22;3385;48.928;10.330;2023-06-04T09:03:28;20.70;99.90
6696;DHT22;3385;48.928;10.330;2023-06-04T09:05:58;20.80;99.90
6696;DHT22;3385;48.928;10.330;2023-06-04T09:08:25;20.90;99.90
6696;DHT22;3385;48.928;10.330;2023-06-04T09:10:54;21.00;99.90
6696;DHT22;3385;48.928;10.330;2023-06-04T09:13:22;21.00;99.90
6696;DHT22;3385;48.928;10.330;2023-06-04T09:18:26;21.10;99.90
6696;DHT22;3385;48.928;10.330;2023-06-04T09:21:18;21.20;99.90
6696;DHT22;3385;48.928;10.330;2023-06-04T09:23:46;21.20;99.90
6696;DHT22;3385;48.928;10.330;2023-06-04T09:26:12;21.40;99.90
6696;DHT22;3385;48.928;10.330;2023-06-04T09:28:45;21.40;99.90
6696;DHT22;3385;48.928;10.330;2023-06-04T09:31:17;21.10;99.90
6696;DHT22;3385;48.928;10.330;2023-06-04T09:33:50;21.00;99.90
6696;DHT22;3385;48.928;10.330;2023-06-04T09:36:16;21.40;99.90
6696;DHT22;3385;48.928;10.330;2023-06-04T09:38:43;21.60;99.90
6696;DHT22;3385;48.928;10.330;2023-06-04T09:41:17;21.40;99.90
6696;DHT22;3385;48.928;10.330;2023-06-04T09:43:45;21.60;99.90
6696;DHT22;3385;48.928;10.330;2023-06-04T09:46:14;21.80;99.90
6696;DHT22;3385;48.928;10.330;2023-06-04T09:48:41;22.00;99.90
6696;DHT22;3385;48.928;10.330;2023-06-04T09:51:08;22.10;99.90
6696;DHT22;3385;48.928;10.330;2023-06-04T09:53:34;22.10;99.90
6696;DHT22;3385;48.928;10.330;2023-06-04T09:56:01;22.10;99.90
6696;DHT22;3385;48.928;10.330;2023-06-04T09:58:29;21.90;99.90
6696;DHT22;3385;48.928;10.330;2023-06-04T10:01:00;21.80;99.90
6696;DHT22;3385;48.928;10.330;2023-06-04T10:03:33;21.60;99.90
6696;DHT22;3385;48.928;10.330;2023-06-04T10:06:01;21.60;99.90
6696;DHT22;3385;48.928;10.330;2023-06-04T10:08:29;21.80;99.90
6696;DHT22;3385;48.928;10.330;2023-06-04T10:10:58;21.80;99.90
6696;DHT22;3385;48.928;10.330;2023-06-04T10:13:37;22.00;99.90
6696;DHT22;3385;48.928;10.330;2023-06-04T10:16:06;22.20;99.90
6696;DHT22;3385;48.928;10.330;2023-06-04T10:18:33;22.40;99.90
6696;DHT22;3385;48.928;10.330;2023-06-04T10:21:00;22.40;99.90
6696;DHT22;3385;48.928;10.330;2023-06-04T10:23:26;22.10;99.90
6696;DHT22;3385;48.928;10.330;2023-06-04T10:25:54;21.90;99.90
6696;DHT22;3385;48.928;10.330;2023-06-04T10:28:23;21.80;99.90
6696;DHT22;3385;48.928;10.330;2023-06-04T10:30:49;21.80;99.90
6696;DHT22;3385;48.928;10.330;2023-06-04T10:33:20;22.10;99.90
6696;DHT22;3385;48.928;10.330;2023-06-04T10:35:50;22.30;99.90
6696;DHT22;3385;48.928;10.330;2023-06-04T10:38:16;22.40;99.90
6696;DHT22;3385;48.928;10.330;2023-06-04T10:40:46;22.40;99.90
6696;DHT22;3385;48.928;10.330;2023-06-04T10:43:13;22.50;99.90
6696;DHT22;3385;48.928;10.330;2023-06-04T10:45:41;22.80;99.90
6696;DHT22;3385;48.928;10.330;2023-06-04T10:48:09;23.20;99.90
6696;DHT22;3385;48.928;10.330;2023-06-04T10:50:47;23.40;99.90
6696;DHT22;3385;48.928;10.330;2023-06-04T10:53:13;23.50;99.90
6696;DHT22;3385;48.928;10.330;2023-06-04T10:55:46;23.50;99.90
6696;DHT22;3385;48.928;10.330;2023-06-04T10:58:12;23.50;99.90
6696;DHT22;3385;48.928;10.330;2023-06-04T11:03:06;23.60;99.90
6696;DHT22;3385;48.928;10.330;2023-06-04T11:05:45;23.70;99.90
6696;DHT22;3385;48.928;10.330;2023-06-04T11:08:12;23.70;99.90
6696;DHT22;3385;48.928;10.330;2023-06-04T11:10:44;23.60;99.90
6696;DHT22;3385;48.928;10.330;2023-06-04T11:13:10;23.60;99.90
6696;DHT22;3385;48.928;10.330;2023-06-04T11:18:12;23.40;99.90
6696;DHT22;3385;48.928;10.330;2023-06-04T11:20:38;23.60;99.90
6696;DHT22;3385;48.928;10.330;2023-06-04T11:23:04;23.40;99.90
6696;DHT22;3385;48.928;10.330;2023-06-04T11:25:31;23.60;99.90
6696;DHT22;3385;48.928;10.330;2023-06-04T11:27:59;23.70;99.90
6696;DHT22;3385;48.928;10.330;2023-06-04T11:30:27;23.90;99.90
6696;DHT22;3385;48.928;10.330;2023-06-04T11:33:03;24.30;99.90
6696;DHT22;3385;48.928;10.330;2023-06-04T11:35:30;24.50;99.90
6696;DHT22;3385;48.928;10.330;2023-06-04T11:37:58;24.10;99.90
6696;DHT22;3385;48.928;10.330;2023-06-04T11:40:24;23.90;99.90
6696;DHT22;3385;48.928;10.330;2023-06-04T11:42:52;24.30;99.90
6696;DHT22;3385;48.928;10.330;2023-06-04T11:45:19;24.60;99.90
6696;DHT22;3385;48.928;10.330;2023-06-04T11:47:53;25.00;99.90
6696;DHT22;3385;48.928;10.330;2023-06-04T11:50:19;25.30;99.90
6696;DHT22;3385;48.928;10.330;2023-06-04T11:52:47;25.60;99.90
6696;DHT22;3385;48.928;10.330;2023-06-04T11:55:14;25.70;99.90
6696;DHT22;3385;48.928;10.330;2023-06-04T11:57:40;25.90;99.90
6696;DHT22;3385;48.928;10.330;2023-06-04T12:00:07;26.30;99.90
6696;DHT22;3385;48.928;10.330;2023-06-04T12:02:37;26.60;99.90
6696;DHT22;3385;48.928;10.330;2023-06-04T12:05:16;26.90;99.90
6696;DHT22;3385;48.928;10.330;2023-06-04T12:07:46;26.80;99.90
6696;DHT22;3385;48.928;10.330;2023-06-04T12:10:13;26.50;99.90
6696;DHT22;3385;48.928;10.330;2023-06-04T12:12:38;26.00;99.90
6696;DHT22;3385;48.928;10.330;2023-06-04T12:15:06;26.10;99.90
6696;DHT22;3385;48.928;10.330;2023-06-04T12:17:32;27.20;99.90
6696;DHT22;3385;48.928;10.330;2023-06-04T12:19:58;28.00;99.90
6696;DHT22;3385;48.928;10.330;2023-06-04T12:22:25;29.10;99.90
6696;DHT22;3385;48.928;10.330;2023-06-04T12:24:55;30.60;99.90
6696;DHT22;3385;48.928;10.330;2023-06-04T12:27:24;31.80;99.90
6696;DHT22;3385;48.928;10.330;2023-06-04T12:30:02;31.80;99.90
6696;DHT22;3385;48.928;10.330;2023-06-04T12:32:28;31.50;99.90
6696;DHT22;3385;48.928;10.330;2023-06-04T12:34:53;31.40;99.90
6696;DHT22;3385;48.928;10.330;2023-06-04T12:37:20;31.50;99.90
6696;DHT22;3385;48.928;10.330;2023-06-04T12:39:46;31.30;99.90
6696;DHT22;3385;48.928;10.330;2023-06-04T12:42:12;31.80;99.90
6696;DHT22;3385;48.928;10.330;2023-06-04T12:44:39;31.60;99.90
6696;DHT22;3385;48.928;10.330;2023-06-04T12:47:06;31.60;99.90
6696;DHT22;3385;48.928;10.330;2023-06-04T12:49:32;31.10;99.90
6696;DHT22;3385;48.928;10.330;2023-06-04T12:51:58;31.80;99.90
6696;DHT22;3385;48.928;10.330;2023-06-04T12:54:24;31.60;99.90
6696;DHT22;3385;48.928;10.330;2023-06-04T12:56:50;31.60;99.90
6696;DHT22;3385;48.928;10.330;2023-06-04T12:59:16;31.50;99.90
6696;DHT22;3385;48.928;10.330;2023-06-04T13:01:42;32.50;99.90
6696;DHT22;3385;48.928;10.330;2023-06-04T13:04:08;33.10;99.90
6696;DHT22;3385;48.928;10.330;2023-06-04T13:06:35;34.00;99.90
6696;DHT22;3385;48.928;10.330;2023-06-04T13:09:04;33.90;99.90
6696;DHT22;3385;48.928;10.330;2023-06-04T13:11:38;33.60;99.90
6696;DHT22;3385;48.928;10.330;2023-06-04T13:14:04;32.80;99.90
6696;DHT22;3385;48.928;10.330;2023-06-04T13:16:29;31.60;99.90
6696;DHT22;3385;48.928;10.330;2023-06-04T13:18:55;31.20;99.90
6696;DHT22;3385;48.928;10.330;2023-06-04T13:21:21;29.40;99.90
6696;DHT22;3385;48.928;10.330;2023-06-04T13:23:47;28.40;99.90
6696;DHT22;3385;48.928;10.330;2023-06-04T13:26:13;29.40;99.90
6696;DHT22;3385;48.928;10.330;2023-06-04T13:28:39;30.10;99.90
6696;DHT22;3385;48.928;10.330;2023-06-04T13:31:04;30.30;99.90
6696;DHT22;3385;48.928;10.330;2023-06-04T13:33:30;29.50;99.90
6696;DHT22;3385;48.928;10.330;2023-06-04T13:35:56;28.20;99.90
6696;DHT22;3385;48.928;10.330;2023-06-04T13:38:21;27.60;99.90
6696;DHT22;3385;48.928;10.330;2023-06-04T13:40:47;27.90;99.90
6696;DHT22;3385;48.928;10.330;2023-06-04T13:43:13;28.40;99.90
6696;DHT22;3385;48.928;10.330;2023-06-04T13:45:39;28.20;99.90
6696;DHT22;3385;48.928;10.330;2023-06-04T13:48:05;28.70;99.90
6696;DHT22;3385;48.928;10.330;2023-06-04T13:50:33;28.70;99.90
6696;DHT22;3385;48.928;10.330;2023-06-04T13:52:59;29.00;99.90
6696;DHT22;3385;48.928;10.330;2023-06-04T13:55:25;29.60;99.90
6696;DHT22;3385;48.928;10.330;2023-06-04T13:57:50;30.20;99.90
6696;DHT22;3385;48.928;10.330;2023-06-04T14:00:16;30.40;99.90
6696;DHT22;3385;48.928;10.330;2023-06-04T14:02:42;30.00;99.90
6696;DHT22;3385;48.928;10.330;2023-06-04T14:05:08;30.20;99.90
6696;DHT22;3385;48.928;10.330;2023-06-04T14:07:34;30.80;99.90
6696;DHT22;3385;48.928;10.330;2023-06-04T14:10:00;30.80;99.90
6696;DHT22;3385;48.928;10.330;2023-06-04T14:12:26;29.70;99.90
6696;DHT22;3385;48.928;10.330;2023-06-04T14:14:52;28.50;99.90
6696;DHT22;3385;48.928;10.330;2023-06-04T14:17:17;27.60;99.90
6696;DHT22;3385;48.928;10.330;2023-06-04T14:19:43;26.80;99.90
6696;DHT22;3385;48.928;10.330;2023-06-04T14:22:10;26.20;99.90
6696;DHT22;3385;48.928;10.330;2023-06-04T14:24:37;23.80;99.90
6696;DHT22;3385;48.928;10.330;2023-06-04T14:27:03;27.00;99.90
6696;DHT22;3385;48.928;10.330;2023-06-04T14:29:29;27.90;99.90
6696;DHT22;3385;48.928;10.330;2023-06-04T14:31:55;28.10;99.90
6696;DHT22;3385;48.928;10.330;2023-06-04T14:34:21;28.10;99.90
6696;DHT22;3385;48.928;10.330;2023-06-04T14:36:46;27.90;99.90
6696;DHT22;3385;48.928;10.330;2023-06-04T14:39:12;27.90;99.90
6696;DHT22;3385;48.928;10.330;2023-06-04T14:41:38;27.60;99.90
6696;DHT22;3385;48.928;10.330;2023-06-04T14:44:04;28.00;99.90
6696;DHT22;3385;48.928;10.330;2023-06-04T14:46:29;29.10;99.90
6696;DHT22;3385;48.928;10.330;2023-06-04T14:48:55;29.30;99.90
6696;DHT22;3385;48.928;10.330;2023-06-04T14:51:21;29.40;99.90
6696;DHT22;3385;48.928;10.330;2023-06-04T14:53:48;29.20;99.90
6696;DHT22;3385;48.928;10.330;2023-06-04T14:56:14;28.80;99.90
6696;DHT22;3385;48.928;10.330;2023-06-04T14:58:39;29.00;99.90
6696;DHT22;3385;48.928;10.330;2023-06-04T15:01:05;29.10;99.90
6696;DHT22;3385;48.928;10.330;2023-06-04T15:03:32;29.20;99.90
6696;DHT22;3385;48.928;10.330;2023-06-04T15:05:58;29.50;99.90
6696;DHT22;3385;48.928;10.330;2023-06-04T15:08:23;29.10;99.90
6696;DHT22;3385;48.928;10.330;2023-06-04T15:10:49;28.50;99.90
6696;DHT22;3385;48.928;10.330;2023-06-04T15:13:15;27.60;99.90
6696;DHT22;3385;48.928;10.330;2023-06-04T15:15:41;27.50;99.90
6696;DHT22;3385;48.928;10.330;2023-06-04T15:18:07;28.00;99.90
6696;DHT22;3385;48.928;10.330;2023-06-04T15:20:33;28.60;99.90
6696;DHT22;3385;48.928;10.330;2023-06-04T15:22:58;29.10;99.90
6696;DHT22;3385;48.928;10.330;2023-06-04T15:25:24;29.00;99.90
6696;DHT22;3385;48.928;10.330;2023-06-04T15:27:50;29.80;99.90
6696;DHT22;3385;48.928;10.330;2023-06-04T15:30:16;30.00;99.90
6696;DHT22;3385;48.928;10.330;2023-06-04T15:32:46;29.80;99.90
6696;DHT22;3385;48.928;10.330;2023-06-04T15:35:12;29.80;99.90
6696;DHT22;3385;48.928;10.330;2023-06-04T15:37:37;29.80;99.90
6696;DHT22;3385;48.928;10.330;2023-06-04T15:40:04;29.60;99.90
6696;DHT22;3385;48.928;10.330;2023-06-04T15:42:33;29.70;99.90
6696;DHT22;3385;48.928;10.330;2023-06-04T15:44:59;29.80;99.90
6696;DHT22;3385;48.928;10.330;2023-06-04T15:47:24;29.60;99.90
6696;DHT22;3385;48.928;10.330;2023-06-04T15:49:50;29.30;99.90
6696;DHT22;3385;48.928;10.330;2023-06-04T15:52:16;29.00;99.90
6696;DHT22;3385;48.928;10.330;2023-06-04T15:54:41;28.80;99.90
6696;DHT22;3385;48.928;10.330;2023-06-04T15:57:07;28.70;99.90
6696;DHT22;3385;48.928;10.330;2023-06-04T15:59:33;28.60;99.90
6696;DHT22;3385;48.928;10.330;2023-06-04T16:01:59;28.50;99.90